Jasper, Alabama
Current Conditions -  °F | °C
As of 6:35 PM on Saturday 25 Oct 2014 (Local Time) from KJFX Reporting Station
Clear Clear  
Wind Chill: 66°   Ceiling: Unl
Heat Index: 66°   Visibility: 8mi
Dew Point: 63°   Wind: 0mph
Humidity: 88%   Direction: NA
Pressure: 30.05"   Gusts: NA
Location:  33.83°N, 87.28°W
Report Text: KJFX 252335Z AUTO 00000KT 8SM CLR 19/17 A3005 RMK A02 P-128
Loading
Personal Weather Stations






























Interactive Weather Map
Tropical Storm Tracking
New forecast layout! Learn more

10-Day Weather Forecast

Advertisements
Track Severe Weather on mobile